»·PEaware :: N5401X KREI-KVNY

N5401X :: KREI-KVNY

FLIGHT INFORMATION

Flight Status: Arrived
Operator: Privately registered:
United States
More flights under this callsign
Pilot: Anonymous 33140 (33140)
Aircraft: CESSNA 172 SKYHAWK
(C172)
More flights by this aircraft type
Origin: KREI Redlands Mun
United States
Destination: KVNY Van Nuys
United States
More flights between these airports :: More routes between these airports
Route:
File this flight plan on PilotEdge
Remarks:
Altitude:
(Current/Filed)
6,500ft
Speed:
(Current/Filed)
110kts
Departed: 20-Jan-21 01:53 PM
Arrived: 20-Jan-21 02:27 PM
Distance/Time
Traveled:
67nm/0:34
Distance/Time
To Go:
Arrived

Flight Plot

Page will automatically refresh every two minutes.

Flight plan parsing failed; only flown route is shown


Map Options




Map Legend


Flown Route
Filed Route
Departure Airport
Arrival Airport
Navaid (VOR, NDB)
Fix

Horizontal Profiles

Position Reports

Time Latitude Longitude Heading Altitude Ground
Speed
20-Jan-21 13:35 34.084223 -117.148217 2 1573ft 0kts
20-Jan-21 13:37 34.084223 -117.148217 2 1573ft 0kts
20-Jan-21 13:38 34.084223 -117.148217 2 1573ft 0kts
20-Jan-21 13:39 34.084223 -117.148217 2 1573ft 0kts
20-Jan-21 13:40 34.084223 -117.148217 2 1573ft 0kts
20-Jan-21 13:41 34.084223 -117.148217 2 1573ft 0kts
20-Jan-21 13:42 34.084223 -117.148217 2 1573ft 0kts
20-Jan-21 13:43 34.084223 -117.148217 2 1573ft 0kts
20-Jan-21 13:44 34.084223 -117.148217 2 1573ft 0kts
20-Jan-21 13:45 34.084223 -117.148217 2 1573ft 0kts
20-Jan-21 13:46 34.084234 -117.148218 353 1573ft 0kts
20-Jan-21 13:47 34.084614 -117.148883 345 1573ft 6kts
20-Jan-21 13:48 34.084843 -117.145125 91 1573ft 4kts
20-Jan-21 13:49 34.084834 -117.141746 88 1573ft 13kts
20-Jan-21 13:50 34.084853 -117.139323 90 1573ft 2kts
20-Jan-21 13:51 34.085274 -117.140112 268 1573ft 33kts
20-Jan-21 13:52 34.096628 -117.157216 308 2216ft 81kts
20-Jan-21 13:53 34.122374 -117.162795 350 2636ft 118kts
20-Jan-21 13:54 34.144380 -117.189808 290 2598ft 128kts
20-Jan-21 13:55 34.156402 -117.230875 281 2599ft 130kts
20-Jan-21 13:56 34.161141 -117.274204 262 2621ft 129kts
20-Jan-21 13:57 34.155293 -117.316852 250 2642ft 128kts
20-Jan-21 13:58 34.147793 -117.359445 256 2608ft 132kts
20-Jan-21 13:59 34.143782 -117.404017 256 2573ft 130kts
20-Jan-21 14:00 34.142893 -117.439965 268 3566ft 100kts
20-Jan-21 14:01 34.144051 -117.474913 271 4268ft 106kts
20-Jan-21 14:02 34.147183 -117.511916 278 4758ft 125kts
20-Jan-21 14:03 34.154628 -117.555091 288 4845ft 140kts
20-Jan-21 14:04 34.163486 -117.601146 283 4622ft 139kts
20-Jan-21 14:05 34.166255 -117.647432 264 4473ft 142kts
20-Jan-21 14:06 34.160565 -117.694058 268 4382ft 141kts
20-Jan-21 14:07 34.158791 -117.740169 272 4384ft 135kts
20-Jan-21 14:08 34.156860 -117.785128 266 4445ft 137kts
20-Jan-21 14:09 34.150330 -117.830438 256 4505ft 135kts
20-Jan-21 14:10 34.140498 -117.875384 256 4263ft 136kts
20-Jan-21 14:11 34.136190 -117.921013 268 4007ft 137kts
20-Jan-21 14:12 34.131735 -117.966692 261 3707ft 137kts
20-Jan-21 14:13 34.127014 -118.012140 261 3444ft 135kts
20-Jan-21 14:14 34.123401 -118.057319 264 3187ft 134kts
20-Jan-21 14:15 34.121837 -118.102112 267 2974ft 133kts
20-Jan-21 14:16 34.119165 -118.146882 266 2717ft 135kts
20-Jan-21 14:17 34.117770 -118.192067 278 2438ft 137kts
20-Jan-21 14:18 34.123058 -118.237898 275 2450ft 137kts
20-Jan-21 14:19 34.119348 -118.284197 266 2465ft 138kts
20-Jan-21 14:20 34.112480 -118.330068 263 2496ft 138kts
20-Jan-21 14:21 34.113140 -118.375456 284 2513ft 133kts
20-Jan-21 14:22 34.125153 -118.416676 305 2496ft 125kts
20-Jan-21 14:23 34.147054 -118.450127 311 2093ft 127kts
20-Jan-21 14:24 34.163259 -118.487773 338 1903ft 126kts
20-Jan-21 14:26 34.190927 -118.488636 359 1069ft 78kts
20-Jan-21 14:27 34.201040 -118.490332 210 805ft 0kts
20-Jan-21 14:28 34.201038 -118.490333 218 805ft 0kts
20-Jan-21 14:29 34.201038 -118.490333 218 805ft 0kts
20-Jan-21 14:30 34.198762 -118.490539 176 805ft 0kts

Navigation Log

Ident Type
Flight plan parsing failed, navigation log unavailable